createdAt,value
2018-06-24T00:00:15.580Z,3.93
2018-06-24T00:02:43.289Z,4.40
2018-06-24T00:05:10.676Z,6.10
2018-06-24T00:07:38.072Z,4.33
2018-06-24T00:10:05.584Z,3.57
2018-06-24T00:12:32.979Z,7.20
2018-06-24T00:15:00.360Z,5.80
2018-06-24T00:17:27.774Z,4.50
2018-06-24T00:19:55.155Z,4.77
2018-06-24T00:22:22.568Z,3.63
2018-06-24T00:24:49.950Z,6.27
2018-06-24T00:27:17.335Z,6.33
2018-06-24T00:29:44.725Z,5.03
2018-06-24T00:32:12.179Z,6.87
2018-06-24T00:34:39.555Z,6.87
2018-06-24T00:37:07.012Z,5.57
2018-06-24T00:39:34.383Z,5.70
2018-06-24T00:42:01.791Z,4.53
2018-06-24T00:44:29.195Z,5.23
2018-06-24T00:46:56.591Z,6.53
2018-06-24T00:49:23.975Z,5.03
2018-06-24T00:51:51.431Z,5.77
2018-06-24T00:54:18.825Z,5.40
2018-06-24T00:56:46.215Z,5.03
2018-06-24T00:59:25.318Z,4.37
2018-06-24T01:01:52.715Z,4.77
2018-06-24T01:04:20.144Z,5.47
2018-06-24T01:06:47.547Z,4.43
2018-06-24T01:09:14.947Z,7.10
2018-06-24T01:11:42.331Z,5.57
2018-06-24T01:14:09.715Z,6.17
2018-06-24T01:16:37.411Z,5.23
2018-06-24T01:19:04.851Z,5.90
2018-06-24T01:21:32.296Z,8.90
2018-06-24T01:23:59.679Z,6.60
2018-06-24T01:26:27.091Z,3.73
2018-06-24T01:28:54.490Z,6.57
2018-06-24T01:31:21.919Z,5.37
2018-06-24T01:33:49.314Z,5.07
2018-06-24T01:36:16.755Z,4.77
2018-06-24T01:38:44.146Z,4.13
2018-06-24T01:41:11.531Z,4.67
2018-06-24T01:43:38.917Z,4.33
2018-06-24T01:46:06.365Z,5.30
2018-06-24T01:48:33.781Z,5.47
2018-06-24T01:51:01.147Z,5.40
2018-06-24T01:53:28.578Z,4.30
2018-06-24T01:55:55.985Z,5.90
2018-06-24T01:58:23.371Z,4.90
2018-06-24T02:00:50.795Z,6.00
2018-06-24T02:03:18.197Z,4.97
2018-06-24T02:05:45.607Z,6.17
2018-06-24T02:08:13.042Z,4.60
2018-06-24T02:10:40.463Z,7.03
2018-06-24T02:13:07.886Z,5.73
2018-06-24T02:15:35.342Z,4.30
2018-06-24T02:18:02.759Z,7.10
2018-06-24T02:20:30.155Z,5.60
2018-06-24T02:22:57.559Z,5.93
2018-06-24T02:25:24.967Z,5.70
2018-06-24T02:27:52.367Z,4.53
2018-06-24T02:30:19.811Z,4.60
2018-06-24T02:32:47.199Z,4.23
2018-06-24T02:35:14.588Z,4.60
2018-06-24T02:37:41.987Z,5.60
2018-06-24T02:40:09.401Z,4.77
2018-06-24T02:42:36.803Z,6.60
2018-06-24T02:45:04.375Z,4.63
2018-06-24T02:47:31.825Z,4.60
2018-06-24T02:49:59.225Z,4.60
2018-06-24T02:52:26.697Z,5.40
2018-06-24T02:54:54.104Z,7.27
2018-06-24T02:57:21.531Z,5.37
2018-06-24T02:59:48.922Z,4.70
2018-06-24T03:02:16.323Z,4.93
2018-06-24T03:04:43.735Z,4.27
2018-06-24T03:07:11.139Z,4.30
2018-06-24T03:09:38.569Z,6.20
2018-06-24T03:12:06.016Z,6.27
2018-06-24T03:14:33.424Z,5.90
2018-06-24T03:17:00.807Z,5.40
2018-06-24T03:19:28.245Z,6.03
2018-06-24T03:21:55.631Z,5.60
2018-06-24T03:24:23.007Z,5.57
2018-06-24T03:26:50.543Z,5.63
2018-06-24T03:29:17.992Z,6.60
2018-06-24T03:31:45.372Z,5.30
2018-06-24T03:34:12.791Z,5.67
2018-06-24T03:36:40.273Z,5.13
2018-06-24T03:39:09.440Z,5.13
2018-06-24T03:41:36.900Z,4.77
2018-06-24T03:44:04.339Z,4.73
2018-06-24T03:46:31.751Z,5.10
2018-06-24T03:48:59.154Z,5.67
2018-06-24T03:51:26.542Z,5.27
2018-06-24T03:53:53.955Z,5.07
2018-06-24T03:56:21.387Z,5.80
2018-06-24T03:58:48.812Z,5.17
2018-06-24T04:01:16.199Z,5.23
2018-06-24T04:03:43.652Z,6.67
2018-06-24T04:06:11.031Z,5.57
2018-06-24T04:08:38.456Z,9.57
2018-06-24T04:11:05.934Z,7.57
2018-06-24T04:13:33.316Z,7.10
2018-06-24T04:16:03.574Z,8.20
2018-06-24T04:18:35.379Z,7.93
2018-06-24T04:21:02.836Z,8.47
2018-06-24T04:23:30.224Z,7.70
2018-06-24T04:25:57.967Z,6.07
2018-06-24T04:28:25.346Z,9.63
2018-06-24T04:30:52.751Z,9.17
2018-06-24T04:33:20.175Z,8.97
2018-06-24T04:35:47.571Z,5.87
2018-06-24T04:38:14.947Z,8.67
2018-06-24T04:40:42.414Z,8.83
2018-06-24T04:43:09.820Z,6.47
2018-06-24T04:45:37.206Z,8.60
2018-06-24T04:48:05.103Z,7.23
2018-06-24T04:50:32.536Z,8.10
2018-06-24T04:52:59.961Z,6.83
2018-06-24T04:55:27.383Z,7.60
2018-06-24T04:57:54.798Z,8.03
2018-06-24T05:00:22.244Z,10.10
2018-06-24T05:02:49.656Z,10.43
2018-06-24T05:05:17.034Z,9.30
2018-06-24T05:07:44.412Z,10.53
2018-06-24T05:10:11.818Z,8.53
2018-06-24T05:12:39.219Z,10.00
2018-06-24T05:15:06.630Z,11.20
2018-06-24T05:17:34.048Z,11.97
2018-06-24T05:20:01.467Z,9.13
2018-06-24T05:22:28.853Z,8.47
2018-06-24T05:24:56.243Z,8.80
2018-06-24T05:27:23.649Z,8.23
2018-06-24T05:29:51.088Z,6.87
2018-06-24T05:32:18.516Z,12.70
2018-06-24T05:34:45.966Z,10.13
2018-06-24T05:37:13.375Z,10.00
2018-06-24T05:39:40.787Z,9.97
2018-06-24T05:42:08.175Z,9.77
2018-06-24T05:44:35.579Z,8.07
2018-06-24T05:47:02.998Z,8.27
2018-06-24T05:49:30.390Z,6.50
2018-06-24T05:51:57.780Z,11.63
2018-06-24T05:54:26.003Z,5.70
2018-06-24T05:56:53.432Z,6.33
2018-06-24T05:59:20.835Z,4.97
2018-06-24T06:01:48.246Z,5.07
2018-06-24T06:04:15.633Z,4.43
2018-06-24T06:06:43.038Z,6.43
2018-06-24T06:09:11.648Z,6.40
2018-06-24T06:11:39.096Z,5.13
2018-06-24T06:14:06.516Z,7.57
2018-06-24T06:16:34.135Z,7.60
2018-06-24T06:19:02.010Z,5.57
2018-06-24T06:21:29.407Z,5.80
2018-06-24T06:23:56.799Z,3.70
2018-06-24T06:26:24.189Z,4.40
2018-06-24T06:28:51.555Z,6.30
2018-06-24T06:31:19.003Z,5.67
2018-06-24T06:33:46.455Z,5.70
2018-06-24T06:36:13.883Z,7.20
2018-06-24T06:38:41.371Z,6.97
2018-06-24T06:41:08.870Z,4.67
2018-06-24T06:43:36.324Z,4.97
2018-06-24T06:46:07.855Z,6.93
2018-06-24T06:48:35.279Z,4.00
2018-06-24T06:51:02.793Z,5.07
2018-06-24T06:53:30.158Z,6.27
2018-06-24T06:55:57.546Z,5.30
2018-06-24T06:58:25.763Z,4.80
2018-06-24T07:00:53.204Z,5.20
2018-06-24T07:03:20.620Z,6.30
2018-06-24T07:05:48.089Z,6.03
2018-06-24T07:08:15.544Z,4.63
2018-06-24T07:10:42.998Z,9.30
2018-06-24T07:13:10.450Z,3.80
2018-06-24T07:15:37.861Z,4.53
2018-06-24T07:18:05.283Z,5.27
2018-06-24T07:20:32.707Z,3.83
2018-06-24T07:23:00.162Z,4.60
2018-06-24T07:25:27.850Z,4.30
2018-06-24T07:27:55.307Z,3.83
2018-06-24T07:30:22.727Z,4.20
2018-06-24T07:32:50.147Z,4.63
2018-06-24T07:35:17.592Z,5.90
2018-06-24T07:37:45.023Z,4.83
2018-06-24T07:40:12.432Z,3.63
2018-06-24T07:42:39.825Z,5.07
2018-06-24T07:45:07.267Z,4.83
2018-06-24T07:47:34.667Z,3.70
2018-06-24T07:50:02.059Z,3.47
2018-06-24T07:52:29.495Z,5.40
2018-06-24T07:54:56.908Z,5.13
2018-06-24T07:57:24.316Z,4.43
2018-06-24T07:59:51.753Z,6.07
2018-06-24T08:02:19.196Z,5.33
2018-06-24T08:04:46.607Z,3.23
2018-06-24T08:07:14.075Z,3.73
2018-06-24T08:09:41.492Z,5.17
2018-06-24T08:12:08.954Z,4.93
2018-06-24T08:14:36.370Z,2.80
2018-06-24T08:17:03.839Z,3.67
2018-06-24T08:19:31.249Z,4.33
2018-06-24T08:21:58.829Z,4.60
2018-06-24T08:24:26.258Z,5.10
2018-06-24T08:26:53.735Z,5.93
2018-06-24T08:29:21.177Z,5.13
2018-06-24T08:31:48.599Z,3.67
2018-06-24T08:34:15.992Z,4.67
2018-06-24T08:36:43.449Z,4.00
2018-06-24T08:39:11.224Z,4.57
2018-06-24T08:41:38.667Z,3.83
2018-06-24T08:44:06.871Z,3.17
2018-06-24T08:46:34.309Z,5.30
2018-06-24T08:49:01.688Z,3.37
2018-06-24T08:51:29.096Z,4.67
2018-06-24T08:53:56.511Z,3.07
2018-06-24T08:56:23.924Z,3.40
2018-06-24T08:58:51.352Z,3.40
2018-06-24T09:01:18.784Z,2.97
2018-06-24T09:03:46.172Z,3.33
2018-06-24T09:06:13.603Z,5.93
2018-06-24T09:08:41.040Z,3.63
2018-06-24T09:11:08.529Z,3.13
2018-06-24T09:13:35.983Z,3.90
2018-06-24T09:16:03.612Z,5.13
2018-06-24T09:18:31.015Z,4.67
2018-06-24T09:20:58.442Z,2.97
2018-06-24T09:23:25.848Z,4.60
2018-06-24T09:25:53.244Z,2.43
2018-06-24T09:28:20.651Z,4.67
2018-06-24T09:30:48.184Z,4.73
2018-06-24T09:33:15.529Z,4.03
2018-06-24T09:35:42.959Z,4.57
2018-06-24T09:38:10.329Z,5.40
2018-06-24T09:40:37.744Z,4.97
2018-06-24T09:43:05.264Z,4.20
2018-06-24T09:45:32.680Z,4.37
2018-06-24T09:48:00.093Z,5.13
2018-06-24T09:50:27.543Z,2.90
2018-06-24T09:52:55.011Z,3.73
2018-06-24T09:55:22.404Z,3.63
2018-06-24T09:57:49.786Z,3.63
2018-06-24T10:00:22.232Z,6.90
2018-06-24T10:02:50.344Z,2.60
2018-06-24T10:05:17.784Z,5.23
2018-06-24T10:07:45.416Z,3.87
2018-06-24T10:10:12.895Z,4.03
2018-06-24T10:12:40.344Z,3.17
2018-06-24T10:15:08.114Z,5.17
2018-06-24T10:17:35.643Z,3.73
2018-06-24T10:20:03.351Z,4.33
2018-06-24T10:25:07.159Z,2.47
2018-06-24T10:27:34.555Z,5.13
2018-06-24T10:30:01.940Z,4.57
2018-06-24T10:32:29.388Z,5.03
2018-06-24T10:34:56.767Z,3.90
2018-06-24T10:37:24.161Z,3.30
2018-06-24T10:39:51.600Z,3.43
2018-06-24T10:42:19.011Z,4.80
2018-06-24T10:44:46.400Z,3.23
2018-06-24T10:47:13.847Z,3.63
2018-06-24T10:49:41.288Z,3.40
2018-06-24T10:52:09.621Z,3.00
2018-06-24T10:54:37.030Z,3.10
2018-06-24T10:57:04.488Z,3.70
2018-06-24T10:59:31.914Z,2.87
2018-06-24T11:01:59.369Z,4.57
2018-06-24T11:04:26.739Z,5.13
2018-06-24T11:06:54.208Z,3.80
2018-06-24T11:09:21.612Z,4.97
2018-06-24T11:11:49.030Z,4.40
2018-06-24T11:14:16.485Z,6.80
2018-06-24T11:16:43.935Z,2.80
2018-06-24T11:19:11.350Z,6.87
2018-06-24T11:21:38.765Z,3.37
2018-06-24T11:24:06.244Z,4.13
2018-06-24T11:26:33.812Z,4.40
2018-06-24T11:29:01.546Z,3.47
2018-06-24T11:31:29.083Z,4.90
2018-06-24T11:33:56.464Z,3.07
2018-06-24T11:36:23.875Z,4.17
2018-06-24T11:38:51.285Z,5.20
2018-06-24T11:41:18.725Z,6.33
2018-06-24T11:43:46.184Z,3.43
2018-06-24T11:46:13.608Z,3.73
2018-06-24T11:48:41.002Z,4.07
2018-06-24T11:51:08.450Z,4.87
2018-06-24T11:53:35.924Z,4.50
2018-06-24T11:56:03.347Z,4.37
2018-06-24T11:58:30.754Z,2.83
2018-06-24T12:00:58.172Z,6.97
2018-06-24T12:03:25.579Z,5.07
2018-06-24T12:05:52.977Z,3.43
2018-06-24T12:08:20.415Z,4.70
2018-06-24T12:10:47.830Z,4.60
2018-06-24T12:13:15.316Z,3.17
2018-06-24T12:15:42.910Z,4.00
2018-06-24T12:18:10.376Z,3.77
2018-06-24T12:20:37.771Z,3.43
2018-06-24T12:23:05.240Z,3.87
2018-06-24T12:25:32.670Z,3.77
2018-06-24T12:28:00.091Z,4.20
2018-06-24T12:30:27.491Z,5.67
2018-06-24T12:32:54.877Z,3.00
2018-06-24T12:35:22.312Z,2.60
2018-06-24T12:37:49.776Z,3.23
2018-06-24T12:40:21.859Z,4.63
2018-06-24T12:42:49.299Z,4.43
2018-06-24T12:45:16.732Z,3.70
2018-06-24T12:47:44.336Z,3.63
2018-06-24T12:50:11.773Z,3.33
2018-06-24T12:52:39.206Z,4.03
2018-06-24T12:55:06.864Z,2.93
2018-06-24T12:57:34.275Z,3.70
2018-06-24T13:00:02.124Z,2.93
2018-06-24T13:02:29.175Z,3.10
2018-06-24T13:04:56.647Z,2.27
2018-06-24T13:07:24.057Z,3.93
2018-06-24T13:09:51.453Z,3.03
2018-06-24T13:12:18.892Z,2.60
2018-06-24T13:14:46.308Z,1.70
2018-06-24T13:17:13.811Z,3.13
2018-06-24T13:19:41.240Z,3.80
2018-06-24T13:22:08.749Z,2.93
2018-06-24T13:24:36.147Z,2.90
2018-06-24T13:27:03.604Z,2.37
2018-06-24T13:29:31.018Z,2.10
2018-06-24T13:31:58.495Z,3.23
2018-06-24T13:34:25.871Z,2.27
2018-06-24T13:36:53.277Z,1.63
2018-06-24T13:39:20.697Z,1.73
2018-06-24T13:41:48.223Z,4.73
2018-06-24T13:44:15.661Z,3.43
2018-06-24T13:46:43.146Z,3.77
2018-06-24T13:49:10.570Z,3.13
2018-06-24T13:51:37.996Z,4.00
2018-06-24T13:54:05.452Z,1.53
2018-06-24T13:56:32.839Z,1.73
2018-06-24T13:59:00.240Z,2.13
2018-06-24T14:01:27.653Z,1.17
2018-06-24T14:03:55.328Z,3.27
2018-06-24T14:06:22.723Z,2.13
2018-06-24T14:08:50.134Z,5.33
2018-06-24T14:11:17.546Z,6.10
2018-06-24T14:13:44.987Z,4.50
2018-06-24T14:16:12.400Z,5.30
2018-06-24T14:18:39.823Z,3.30
2018-06-24T14:21:07.259Z,3.50
2018-06-24T14:23:34.871Z,3.07
2018-06-24T14:26:02.136Z,2.70
2018-06-24T14:28:29.577Z,2.87
2018-06-24T14:30:56.957Z,1.73
2018-06-24T14:33:24.336Z,3.07
2018-06-24T14:35:51.751Z,2.20
2018-06-24T14:38:19.199Z,1.80
2018-06-24T14:40:46.616Z,3.47
2018-06-24T14:43:14.029Z,2.30
2018-06-24T14:45:41.481Z,3.13
2018-06-24T14:48:08.872Z,3.90
2018-06-24T14:50:36.272Z,2.97
2018-06-24T14:53:03.698Z,3.30
2018-06-24T14:55:31.111Z,5.23
2018-06-24T14:57:58.539Z,2.83
2018-06-24T15:00:25.956Z,2.87
2018-06-24T15:02:53.395Z,2.47
2018-06-24T15:05:20.760Z,2.97
2018-06-24T15:07:48.180Z,2.13
2018-06-24T15:10:15.635Z,4.20
2018-06-24T15:12:43.065Z,6.13
2018-06-24T15:15:10.498Z,2.10
2018-06-24T15:17:39.737Z,3.07
2018-06-24T15:20:07.397Z,3.47
2018-06-24T15:22:34.757Z,3.00
2018-06-24T15:25:02.197Z,4.90
2018-06-24T15:27:29.672Z,3.47
2018-06-24T15:29:57.124Z,4.50
2018-06-24T15:32:24.560Z,2.43
2018-06-24T15:34:51.970Z,3.57
2018-06-24T15:37:19.387Z,2.70
2018-06-24T15:39:46.817Z,3.67
2018-06-24T15:42:14.793Z,4.07
2018-06-24T15:44:42.345Z,5.60
2018-06-24T15:47:09.749Z,5.23
2018-06-24T15:49:37.147Z,2.93
2018-06-24T15:52:04.664Z,3.53
2018-06-24T15:54:32.083Z,2.80
2018-06-24T15:56:59.497Z,2.50
2018-06-24T15:59:26.886Z,2.87
2018-06-24T16:01:54.380Z,2.80
2018-06-24T16:04:21.790Z,4.37
2018-06-24T16:06:49.240Z,3.70
2018-06-24T16:09:16.639Z,5.47
2018-06-24T16:11:45.127Z,3.07
2018-06-24T16:14:12.523Z,3.50
2018-06-24T16:16:39.949Z,3.17
2018-06-24T16:19:07.568Z,2.93
2018-06-24T16:21:34.968Z,3.57
2018-06-24T16:24:02.404Z,3.87
2018-06-24T16:26:29.841Z,6.30
2018-06-24T16:28:57.248Z,3.53
2018-06-24T16:31:24.708Z,3.57
2018-06-24T16:33:52.147Z,2.53
2018-06-24T16:36:19.585Z,3.77
2018-06-24T16:38:47.000Z,4.63
2018-06-24T16:41:14.431Z,2.23
2018-06-24T16:43:41.821Z,3.13
2018-06-24T16:46:09.227Z,3.30
2018-06-24T16:48:36.691Z,2.67
2018-06-24T16:51:04.119Z,3.10
2018-06-24T16:53:31.524Z,3.40
2018-06-24T16:55:58.926Z,3.37
2018-06-24T16:58:26.457Z,4.90
2018-06-24T17:00:53.879Z,3.87
2018-06-24T17:03:21.272Z,3.07
2018-06-24T17:05:48.716Z,3.37
2018-06-24T17:08:16.141Z,3.80
2018-06-24T17:10:43.740Z,2.90
2018-06-24T17:13:11.159Z,4.77
2018-06-24T17:15:38.656Z,3.93
2018-06-24T17:18:06.112Z,2.50
2018-06-24T17:20:33.519Z,3.50
2018-06-24T17:23:00.986Z,4.43
2018-06-24T17:25:28.390Z,3.97
2018-06-24T17:27:55.795Z,2.77
2018-06-24T17:30:23.184Z,2.77
2018-06-24T17:32:50.900Z,5.83
2018-06-24T17:35:18.279Z,3.47
2018-06-24T17:37:45.679Z,4.40
2018-06-24T17:42:47.377Z,3.63
2018-06-24T17:45:14.812Z,3.67
2018-06-24T17:47:42.456Z,5.93
2018-06-24T17:50:10.516Z,4.63
2018-06-24T17:52:38.839Z,3.03
2018-06-24T17:55:06.476Z,4.50
2018-06-24T17:57:33.929Z,5.50
2018-06-24T18:00:01.331Z,5.50
2018-06-24T18:02:28.723Z,3.97
2018-06-24T18:04:56.134Z,4.80
2018-06-24T18:07:23.586Z,4.87
2018-06-24T18:09:51.026Z,3.57
2018-06-24T18:12:18.663Z,5.10
2018-06-24T18:14:46.087Z,4.10
2018-06-24T18:17:13.500Z,5.43
2018-06-24T18:19:41.142Z,4.37
2018-06-24T18:22:08.501Z,5.27
2018-06-24T18:24:36.375Z,3.43
2018-06-24T18:27:04.766Z,5.77
2018-06-24T18:29:32.264Z,4.73
2018-06-24T18:31:59.656Z,3.60
2018-06-24T18:34:27.203Z,3.60
2018-06-24T18:36:54.633Z,3.87
2018-06-24T18:39:22.032Z,4.27
2018-06-24T18:41:49.451Z,3.67
2018-06-24T18:44:16.872Z,3.60
2018-06-24T18:46:44.299Z,4.33
2018-06-24T18:49:11.699Z,5.13
2018-06-24T18:51:39.211Z,3.53
2018-06-24T18:54:06.548Z,5.30
2018-06-24T18:56:34.236Z,4.70
2018-06-24T18:59:01.676Z,4.30
2018-06-24T19:01:29.088Z,4.50
2018-06-24T19:03:56.471Z,4.83
2018-06-24T19:06:23.896Z,3.13
2018-06-24T19:08:51.284Z,8.20
2018-06-24T19:11:18.684Z,5.03
2018-06-24T19:13:46.119Z,4.50
2018-06-24T19:16:13.531Z,5.53
2018-06-24T19:18:40.967Z,3.93
2018-06-24T19:21:08.386Z,4.93
2018-06-24T19:23:35.828Z,9.07
2018-06-24T19:26:03.267Z,3.60
2018-06-24T19:28:30.709Z,4.90
2018-06-24T19:30:58.199Z,3.53
2018-06-24T19:33:25.607Z,5.57
2018-06-24T19:35:52.999Z,4.03
2018-06-24T19:38:20.372Z,4.10
2018-06-24T19:40:47.778Z,4.43
2018-06-24T19:43:15.191Z,4.50
2018-06-24T19:45:42.784Z,5.50
2018-06-24T19:48:10.213Z,4.13
2018-06-24T19:50:37.628Z,4.27
2018-06-24T19:53:05.111Z,4.10
2018-06-24T19:55:32.567Z,6.63
2018-06-24T19:57:59.989Z,4.00
2018-06-24T20:00:27.426Z,4.50
2018-06-24T20:02:54.827Z,4.03
2018-06-24T20:05:22.308Z,5.00
2018-06-24T20:07:49.751Z,4.70
2018-06-24T20:10:17.348Z,4.13
2018-06-24T20:12:44.839Z,4.80
2018-06-24T20:15:12.329Z,4.50
2018-06-24T20:17:39.761Z,4.07
2018-06-24T20:20:07.238Z,4.00
2018-06-24T20:22:34.708Z,3.53
2018-06-24T20:25:02.124Z,6.47
2018-06-24T20:27:29.572Z,6.03
2018-06-24T20:29:57.198Z,4.17
2018-06-24T20:32:24.615Z,3.87
2018-06-24T20:34:52.053Z,3.97
2018-06-24T20:37:19.440Z,3.67
2018-06-24T20:39:46.834Z,3.83
2018-06-24T20:42:14.275Z,4.40
2018-06-24T20:44:41.919Z,3.80
2018-06-24T20:47:09.335Z,6.37
2018-06-24T20:49:36.776Z,4.93
2018-06-24T20:52:04.394Z,4.70
2018-06-24T20:54:31.936Z,4.23
2018-06-24T20:56:59.338Z,6.30
2018-06-24T20:59:26.756Z,5.57
2018-06-24T21:01:54.150Z,4.97
2018-06-24T21:04:21.524Z,5.70
2018-06-24T21:06:48.913Z,4.90
2018-06-24T21:09:16.359Z,6.63
2018-06-24T21:11:43.700Z,4.93
2018-06-24T21:14:11.136Z,5.00
2018-06-24T21:16:38.543Z,6.27
2018-06-24T21:19:05.988Z,6.70
2018-06-24T21:21:33.651Z,6.63
2018-06-24T21:24:01.079Z,5.10
2018-06-24T21:26:28.556Z,7.77
2018-06-24T21:28:56.132Z,6.53
2018-06-24T21:31:23.558Z,4.53
2018-06-24T21:33:50.959Z,6.00
2018-06-24T21:36:18.408Z,5.97
2018-06-24T21:38:45.819Z,5.67
2018-06-24T21:41:13.207Z,4.23
2018-06-24T21:43:40.590Z,5.20
2018-06-24T21:46:08.025Z,5.97
2018-06-24T21:48:35.679Z,7.90
2018-06-24T21:51:03.128Z,7.13
2018-06-24T21:53:30.561Z,4.40
2018-06-24T21:55:58.037Z,6.60
2018-06-24T21:58:25.436Z,4.43
2018-06-24T22:00:53.463Z,7.60
2018-06-24T22:03:20.823Z,7.37
2018-06-24T22:05:48.195Z,7.23
2018-06-24T22:08:15.577Z,6.40
2018-06-24T22:10:42.972Z,8.80
2018-06-24T22:13:10.380Z,7.83
2018-06-24T22:15:37.779Z,8.30
2018-06-24T22:18:05.223Z,8.83
2018-06-24T22:20:32.627Z,6.90
2018-06-24T22:23:00.017Z,7.77
2018-06-24T22:25:27.555Z,7.80
2018-06-24T22:27:54.937Z,6.60
2018-06-24T22:30:22.345Z,7.60
2018-06-24T22:32:49.753Z,7.17
2018-06-24T22:35:17.156Z,7.00
2018-06-24T22:37:44.547Z,7.57
2018-06-24T22:40:11.983Z,6.30
2018-06-24T22:42:39.376Z,6.23
2018-06-24T22:45:06.752Z,7.70
2018-06-24T22:47:34.164Z,6.37
2018-06-24T22:50:01.554Z,8.37
2018-06-24T22:52:28.939Z,6.80
2018-06-24T22:54:56.347Z,7.87
2018-06-24T22:57:23.745Z,6.10
2018-06-24T23:00:02.647Z,9.07
2018-06-24T23:02:30.057Z,6.40
2018-06-24T23:04:57.391Z,5.40
2018-06-24T23:07:24.796Z,7.40
2018-06-24T23:09:52.207Z,8.50
2018-06-24T23:12:19.571Z,8.77
2018-06-24T23:14:46.991Z,7.03
2018-06-24T23:17:14.439Z,9.13
2018-06-24T23:19:41.812Z,9.47
2018-06-24T23:22:09.223Z,7.57
2018-06-24T23:24:36.624Z,7.93
2018-06-24T23:27:04.144Z,9.00
2018-06-24T23:29:31.601Z,7.50
2018-06-24T23:31:58.984Z,9.07
2018-06-24T23:34:26.367Z,7.83
2018-06-24T23:36:53.889Z,8.73
2018-06-24T23:39:21.287Z,9.63
2018-06-24T23:41:48.681Z,9.63
2018-06-24T23:44:16.079Z,11.17
2018-06-24T23:46:43.656Z,12.23
2018-06-24T23:49:11.134Z,6.93
2018-06-24T23:51:38.516Z,8.67
2018-06-24T23:54:05.987Z,10.87
2018-06-24T23:56:33.483Z,9.17
2018-06-24T23:59:00.864Z,9.03
